sensor_id;sensor_type;location;lat;lon;timestamp;P1;durP1;ratioP1;P2;durP2;ratioP2
64917;SDS011;52176;44.858;38.372;2022-09-01T03:50:07;12.23;;;8.00;;
64917;SDS011;52176;44.858;38.372;2022-09-01T03:52:49;16.10;;;8.38;;
64917;SDS011;52176;44.858;38.372;2022-09-01T03:55:24;19.95;;;7.72;;
64917;SDS011;52176;44.858;38.372;2022-09-01T03:57:54;13.32;;;8.15;;
64917;SDS011;52176;44.858;38.372;2022-09-01T04:00:26;19.83;;;8.07;;
64917;SDS011;52176;44.858;38.372;2022-09-01T04:02:57;27.65;;;8.20;;
64917;SDS011;52176;44.858;38.372;2022-09-01T04:05:26;18.75;;;7.20;;
64917;SDS011;52176;44.858;38.372;2022-09-01T04:07:56;14.60;;;6.82;;
64917;SDS011;52176;44.858;38.372;2022-09-01T04:10:26;14.63;;;6.80;;
64917;SDS011;52176;44.858;38.372;2022-09-01T04:12:52;15.75;;;7.00;;
64917;SDS011;52176;44.858;38.372;2022-09-01T04:15:21;19.25;;;6.82;;
64917;SDS011;52176;44.858;38.372;2022-09-01T04:17:47;14.18;;;6.88;;
64917;SDS011;52176;44.858;38.372;2022-09-01T04:20:31;11.00;;;6.38;;
64917;SDS011;52176;44.858;38.372;2022-09-01T04:23:05;19.75;;;6.82;;
64917;SDS011;52176;44.858;38.372;2022-09-01T04:25:36;18.30;;;7.43;;
64917;SDS011;52176;44.858;38.372;2022-09-01T04:28:04;20.80;;;7.90;;
64917;SDS011;52176;44.858;38.372;2022-09-01T04:30:42;17.88;;;8.02;;
64917;SDS011;52176;44.858;38.372;2022-09-01T04:50:28;16.33;;;7.32;;
64917;SDS011;52176;44.858;38.372;2022-09-01T04:53:33;15.93;;;8.68;;
64917;SDS011;52176;44.858;38.372;2022-09-01T04:56:04;20.77;;;9.02;;
64917;SDS011;52176;44.858;38.372;2022-09-01T04:58:37;24.27;;;9.23;;
64917;SDS011;52176;44.858;38.372;2022-09-01T05:01:12;27.40;;;8.77;;
64917;SDS011;52176;44.858;38.372;2022-09-01T05:03:41;22.17;;;9.18;;
64917;SDS011;52176;44.858;38.372;2022-09-01T05:06:17;28.90;;;8.68;;
64917;SDS011;52176;44.858;38.372;2022-09-01T05:08:56;24.42;;;8.82;;
64917;SDS011;52176;44.858;38.372;2022-09-01T05:11:43;27.90;;;8.05;;
64917;SDS011;52176;44.858;38.372;2022-09-01T05:14:21;20.80;;;7.47;;
64917;SDS011;52176;44.858;38.372;2022-09-01T05:16:54;27.52;;;7.28;;
64917;SDS011;52176;44.858;38.372;2022-09-01T05:19:26;16.55;;;6.85;;
64917;SDS011;52176;44.858;38.372;2022-09-01T05:31:53;15.70;;;6.07;;
64917;SDS011;52176;44.858;38.372;2022-09-01T05:56:43;19.33;;;5.25;;
64917;SDS011;52176;44.858;38.372;2022-09-01T06:01:41;17.40;;;5.88;;
64917;SDS011;52176;44.858;38.372;2022-09-01T06:04:08;17.52;;;5.20;;
64917;SDS011;52176;44.858;38.372;2022-09-01T06:09:06;16.95;;;7.07;;
64917;SDS011;52176;44.858;38.372;2022-09-01T06:11:33;17.50;;;7.80;;
64917;SDS011;52176;44.858;38.372;2022-09-01T06:18:54;15.23;;;5.50;;
64917;SDS011;52176;44.858;38.372;2022-09-01T06:21:22;16.58;;;5.90;;
64917;SDS011;52176;44.858;38.372;2022-09-01T06:23:49;14.18;;;5.50;;
64917;SDS011;52176;44.858;38.372;2022-09-01T06:26:27;13.07;;;5.10;;
64917;SDS011;52176;44.858;38.372;2022-09-01T06:28:59;15.65;;;5.60;;
64917;SDS011;52176;44.858;38.372;2022-09-01T06:31:29;13.05;;;5.57;;
64917;SDS011;52176;44.858;38.372;2022-09-01T06:34:08;22.90;;;6.00;;
64917;SDS011;52176;44.858;38.372;2022-09-01T06:36:43;19.25;;;6.22;;
64917;SDS011;52176;44.858;38.372;2022-09-01T06:39:11;21.90;;;5.93;;
64917;SDS011;52176;44.858;38.372;2022-09-01T06:41:51;18.48;;;6.10;;
64917;SDS011;52176;44.858;38.372;2022-09-01T06:44:27;20.33;;;5.68;;
64917;SDS011;52176;44.858;38.372;2022-09-01T06:47:01;16.83;;;6.45;;
64917;SDS011;52176;44.858;38.372;2022-09-01T06:49:29;18.40;;;6.32;;
64917;SDS011;52176;44.858;38.372;2022-09-01T06:52:01;19.77;;;6.28;;
64917;SDS011;52176;44.858;38.372;2022-09-01T06:54:29;17.50;;;6.25;;
64917;SDS011;52176;44.858;38.372;2022-09-01T06:57:01;15.07;;;6.88;;
64917;SDS011;52176;44.858;38.372;2022-09-01T06:59:29;25.38;;;6.45;;
64917;SDS011;52176;44.858;38.372;2022-09-01T07:02:00;16.48;;;6.57;;
64917;SDS011;52176;44.858;38.372;2022-09-01T07:04:39;20.85;;;6.50;;
64917;SDS011;52176;44.858;38.372;2022-09-01T07:07:08;15.77;;;6.00;;
64917;SDS011;52176;44.858;38.372;2022-09-01T07:10:09;21.63;;;5.97;;
64917;SDS011;52176;44.858;38.372;2022-09-01T07:12:45;21.38;;;6.22;;
64917;SDS011;52176;44.858;38.372;2022-09-01T07:15:12;16.30;;;6.28;;
64917;SDS011;52176;44.858;38.372;2022-09-01T07:17:45;14.75;;;5.50;;
64917;SDS011;52176;44.858;38.372;2022-09-01T07:20:15;17.45;;;6.40;;
64917;SDS011;52176;44.858;38.372;2022-09-01T07:25:09;17.73;;;5.97;;
64917;SDS011;52176;44.858;38.372;2022-09-01T07:28:12;19.00;;;6.88;;
64917;SDS011;52176;44.858;38.372;2022-09-01T07:30:41;20.50;;;6.20;;
64917;SDS011;52176;44.858;38.372;2022-09-01T07:33:10;21.15;;;5.75;;
64917;SDS011;52176;44.858;38.372;2022-09-01T07:35:39;19.20;;;5.93;;
64917;SDS011;52176;44.858;38.372;2022-09-01T07:38:06;14.18;;;6.10;;
64917;SDS011;52176;44.858;38.372;2022-09-01T07:40:37;14.25;;;5.53;;
64917;SDS011;52176;44.858;38.372;2022-09-01T07:43:13;14.55;;;5.70;;
64917;SDS011;52176;44.858;38.372;2022-09-01T07:46:07;16.52;;;5.05;;
64917;SDS011;52176;44.858;38.372;2022-09-01T07:48:34;18.02;;;5.30;;
64917;SDS011;52176;44.858;38.372;2022-09-01T10:13:10;22.00;;;5.00;;
64917;SDS011;52176;44.858;38.372;2022-09-01T16:24:17;26.35;;;10.35;;
64917;SDS011;52176;44.858;38.372;2022-09-01T17:46:54;23.97;;;10.73;;
64917;SDS011;52176;44.858;38.372;2022-09-01T19:38:42;23.02;;;11.88;;
64917;SDS011;52176;44.858;38.372;2022-09-01T19:41:26;25.50;;;12.60;;
64917;SDS011;52176;44.858;38.372;2022-09-01T19:47:07;30.75;;;13.35;;
64917;SDS011;52176;44.858;38.372;2022-09-01T19:49:47;23.77;;;13.30;;
64917;SDS011;52176;44.858;38.372;2022-09-01T19:55:19;24.45;;;12.65;;
64917;SDS011;52176;44.858;38.372;2022-09-01T19:57:51;25.80;;;11.85;;
64917;SDS011;52176;44.858;38.372;2022-09-01T20:00:36;20.65;;;12.30;;
64917;SDS011;52176;44.858;38.372;2022-09-01T20:03:07;20.38;;;12.27;;
64917;SDS011;52176;44.858;38.372;2022-09-01T20:05:41;22.95;;;13.23;;
64917;SDS011;52176;44.858;38.372;2022-09-01T20:08:31;22.00;;;12.50;;
64917;SDS011;52176;44.858;38.372;2022-09-01T20:11:09;27.48;;;12.75;;
64917;SDS011;52176;44.858;38.372;2022-09-01T20:13:40;24.77;;;13.02;;
64917;SDS011;52176;44.858;38.372;2022-09-01T20:21:44;26.37;;;12.10;;
64917;SDS011;52176;44.858;38.372;2022-09-01T20:27:01;20.30;;;12.55;;
64917;SDS011;52176;44.858;38.372;2022-09-01T20:32:33;21.25;;;12.18;;
64917;SDS011;52176;44.858;38.372;2022-09-01T20:35:13;21.92;;;12.27;;
64917;SDS011;52176;44.858;38.372;2022-09-01T20:37:48;16.50;;;11.60;;
64917;SDS011;52176;44.858;38.372;2022-09-01T21:04:01;37.35;;;13.52;;
64917;SDS011;52176;44.858;38.372;2022-09-01T21:12:07;19.88;;;12.82;;
64917;SDS011;52176;44.858;38.372;2022-09-01T21:23:18;21.67;;;12.32;;
64917;SDS011;52176;44.858;38.372;2022-09-01T21:25:45;20.92;;;12.65;;
64917;SDS011;52176;44.858;38.372;2022-09-01T21:28:12;23.58;;;13.18;;
64917;SDS011;52176;44.858;38.372;2022-09-01T21:30:48;26.33;;;12.88;;
64917;SDS011;52176;44.858;38.372;2022-09-01T21:33:19;29.70;;;13.27;;
64917;SDS011;52176;44.858;38.372;2022-09-01T21:35:49;18.48;;;12.50;;
64917;SDS011;52176;44.858;38.372;2022-09-01T21:38:15;23.90;;;12.75;;
64917;SDS011;52176;44.858;38.372;2022-09-01T21:40:41;21.40;;;12.60;;
64917;SDS011;52176;44.858;38.372;2022-09-01T21:45:55;24.17;;;12.93;;
64917;SDS011;52176;44.858;38.372;2022-09-01T21:48:21;26.15;;;13.10;;
64917;SDS011;52176;44.858;38.372;2022-09-01T21:50:48;25.60;;;12.98;;
64917;SDS011;52176;44.858;38.372;2022-09-01T21:53:14;22.88;;;12.98;;
64917;SDS011;52176;44.858;38.372;2022-09-01T21:55:40;25.05;;;12.98;;
64917;SDS011;52176;44.858;38.372;2022-09-01T21:58:07;22.67;;;12.00;;
64917;SDS011;52176;44.858;38.372;2022-09-01T22:00:34;18.23;;;12.82;;
64917;SDS011;52176;44.858;38.372;2022-09-01T22:03:04;27.45;;;12.13;;
64917;SDS011;52176;44.858;38.372;2022-09-01T22:05:31;23.95;;;12.75;;
64917;SDS011;52176;44.858;38.372;2022-09-01T22:07:57;19.92;;;12.18;;
64917;SDS011;52176;44.858;38.372;2022-09-01T22:10:26;21.50;;;12.25;;
64917;SDS011;52176;44.858;38.372;2022-09-01T22:12:54;23.73;;;11.98;;
64917;SDS011;52176;44.858;38.372;2022-09-01T22:15:22;23.23;;;12.63;;
64917;SDS011;52176;44.858;38.372;2022-09-01T22:17:49;26.40;;;12.40;;
64917;SDS011;52176;44.858;38.372;2022-09-01T22:20:18;23.42;;;13.07;;
64917;SDS011;52176;44.858;38.372;2022-09-01T22:22:46;22.15;;;11.93;;
64917;SDS011;52176;44.858;38.372;2022-09-01T22:25:15;27.45;;;13.10;;
64917;SDS011;52176;44.858;38.372;2022-09-01T22:27:43;29.00;;;12.73;;
64917;SDS011;52176;44.858;38.372;2022-09-01T22:30:09;21.35;;;12.35;;
64917;SDS011;52176;44.858;38.372;2022-09-01T22:32:37;18.52;;;11.90;;
64917;SDS011;52176;44.858;38.372;2022-09-01T22:35:09;20.48;;;12.20;;
64917;SDS011;52176;44.858;38.372;2022-09-01T22:37:37;21.85;;;11.73;;
64917;SDS011;52176;44.858;38.372;2022-09-01T22:40:04;25.40;;;12.73;;
64917;SDS011;52176;44.858;38.372;2022-09-01T22:42:31;20.40;;;11.75;;
64917;SDS011;52176;44.858;38.372;2022-09-01T22:44:58;24.65;;;12.82;;
64917;SDS011;52176;44.858;38.372;2022-09-01T22:47:24;23.60;;;11.80;;
64917;SDS011;52176;44.858;38.372;2022-09-01T22:49:50;19.60;;;11.38;;
64917;SDS011;52176;44.858;38.372;2022-09-01T22:52:18;20.58;;;11.68;;
64917;SDS011;52176;44.858;38.372;2022-09-01T22:54:44;21.35;;;11.55;;
64917;SDS011;52176;44.858;38.372;2022-09-01T22:57:10;21.85;;;11.45;;
64917;SDS011;52176;44.858;38.372;2022-09-01T22:59:36;20.98;;;11.27;;
64917;SDS011;52176;44.858;38.372;2022-09-01T23:02:06;21.23;;;11.43;;
64917;SDS011;52176;44.858;38.372;2022-09-01T23:04:35;19.05;;;11.77;;
64917;SDS011;52176;44.858;38.372;2022-09-01T23:07:02;25.13;;;11.90;;
64917;SDS011;52176;44.858;38.372;2022-09-01T23:09:29;16.85;;;11.98;;
64917;SDS011;52176;44.858;38.372;2022-09-01T23:11:55;20.08;;;12.43;;
64917;SDS011;52176;44.858;38.372;2022-09-01T23:14:21;23.15;;;12.13;;
64917;SDS011;52176;44.858;38.372;2022-09-01T23:16:48;22.00;;;12.50;;
64917;SDS011;52176;44.858;38.372;2022-09-01T23:19:16;18.80;;;12.82;;
64917;SDS011;52176;44.858;38.372;2022-09-01T23:21:43;18.13;;;11.80;;
64917;SDS011;52176;44.858;38.372;2022-09-01T23:24:09;21.25;;;12.05;;
64917;SDS011;52176;44.858;38.372;2022-09-01T23:26:35;18.33;;;12.50;;
64917;SDS011;52176;44.858;38.372;2022-09-01T23:29:02;19.33;;;12.65;;
64917;SDS011;52176;44.858;38.372;2022-09-01T23:31:30;17.63;;;12.27;;
64917;SDS011;52176;44.858;38.372;2022-09-01T23:33:58;23.05;;;12.27;;
64917;SDS011;52176;44.858;38.372;2022-09-01T23:36:25;21.33;;;12.13;;
64917;SDS011;52176;44.858;38.372;2022-09-01T23:38:53;22.20;;;12.32;;
64917;SDS011;52176;44.858;38.372;2022-09-01T23:41:21;18.38;;;12.48;;
64917;SDS011;52176;44.858;38.372;2022-09-01T23:43:56;19.73;;;11.75;;
64917;SDS011;52176;44.858;38.372;2022-09-01T23:46:26;19.88;;;11.75;;
64917;SDS011;52176;44.858;38.372;2022-09-01T23:48:54;19.25;;;12.07;;
64917;SDS011;52176;44.858;38.372;2022-09-01T23:51:20;22.25;;;12.68;;
64917;SDS011;52176;44.858;38.372;2022-09-01T23:53:47;21.15;;;12.10;;
64917;SDS011;52176;44.858;38.372;2022-09-01T23:56:17;19.70;;;12.15;;
64917;SDS011;52176;44.858;38.372;2022-09-01T23:58:45;22.00;;;12.52;;
